Time;durP1;ratioP1;P1;durP2;ratioP2;P2;SDS_P1;SDS_P2;PMS_P1;PMS_P2;Temp;Humidity;BMP_temperature;BMP_pressure;BME280_temperature;BME280_humidity;BME280_pressure;Samples;Min_cycle;Max_cycle;Signal;HPM_P1;HPM_P2
2022/01/08 00:02:39;;;;;;;13.07;8.60;;;3.30;99.90;;;;;;4801916;29;20046;-89
2022/01/08 00:05:51;;;;;;;;;;;;;;;;;;;;;
2022/01/08 00:08:39;;;;;;;12.40;7.95;;;3.30;99.90;;;;;;4825335;29;20048;-89
2022/01/08 00:11:19;;;;;;;;;;;;;;;;;;;;;
2022/01/08 00:14:10;;;;;;;11.35;8.00;;;3.20;99.90;;;;;;4845750;29;20050;-89
2022/01/08 00:17:22;;;;;;;;;;;;;;;;;;;;;
2022/01/08 00:20:14;;;;;;;12.05;8.27;;;3.10;99.90;;;;;;4830103;29;20497;-90
2022/01/08 00:23:35;;;;;;;;;;;;;;;;;;;;;
2022/01/08 00:27:01;;;;;;;11.40;7.93;;;3.00;99.90;;;;;;4858769;29;20053;-90
2022/01/08 00:29:18;;;;;;;11.77;7.82;;;3.00;99.90;;;;;;4857805;29;20018;-89
2022/01/08 00:32:06;;;;;;;13.07;8.35;;;2.90;99.90;;;;;;4834939;29;20019;-89
2022/01/08 00:34:50;;;;;;;11.85;8.02;;;2.90;99.90;;;;;;4829872;29;20042;-90
2022/01/08 00:37:59;;;;;;;14.48;8.95;;;2.80;99.90;;;;;;4814511;29;20058;-90
2022/01/08 00:41:14;;;;;;;11.90;8.20;;;2.80;99.90;;;;;;4843173;29;20045;-89
2022/01/08 00:44:26;;;;;;;;;;;;;;;;;;;;;
2022/01/08 00:47:24;;;;;;;;;;;;;;;;;;;;;
2022/01/08 00:50:12;;;;;;;;;;;;;;;;;;;;;
2022/01/08 00:53:18;;;;;;;;;;;;;;;;;;;;;
2022/01/08 00:56:15;;;;;;;12.57;8.25;;;2.70;99.90;;;;;;4828062;29;20036;-89
2022/01/08 00:59:05;;;;;;;;;;;;;;;;;;;;;
2022/01/08 01:02:11;;;;;;;13.50;9.30;;;2.60;99.90;;;;;;4825094;29;20050;-90
2022/01/08 01:05:02;;;;;;;12.75;8.85;;;2.60;99.90;;;;;;4844658;29;20041;-89
2022/01/08 01:07:44;;;;;;;;;;;;;;;;;;;;;
2022/01/08 01:10:10;;;;;;;;;;;2.60;99.90;;;;;;4845229;29;20030;-90
2022/01/08 01:13:11;;;;;;;;;;;;;;;;;;;;;
2022/01/08 01:19:13;;;;;;;14.18;9.73;;;2.60;99.90;;;;;;4819462;29;20034;-89
2022/01/08 01:25:49;;;;;;;;;;;;;;;;;;;;;
2022/01/08 01:28:35;;;;;;;;;;;;;;;;;;;;;
2022/01/08 01:49:59;;;;;;;13.13;9.65;;;2.60;99.90;;;;;;4837429;29;20091;-90
2022/01/08 01:53:15;;;;;;;;;;;;;;;;;;;;;
2022/01/08 01:55:56;;;;;;;;;;;2.60;99.90;;;;;;4859139;29;20079;-90
2022/01/08 01:58:40;;;;;;;;;;;;;;;;;;;;;
2022/01/08 02:01:21;;;;;;;15.32;9.38;;;2.60;99.90;;;;;;4822930;29;20029;-88
2022/01/08 02:04:15;;;;;;;14.35;9.38;;;2.60;99.90;;;;;;4811786;29;20042;-89
2022/01/08 02:09:39;;;;;;;;;;;;;;;;;;;;;
2022/01/08 02:12:27;;;;;;;12.05;8.73;;;2.60;99.90;;;;;;4836432;29;20033;-89
2022/01/08 02:15:36;;;;;;;17.05;9.23;;;2.60;99.90;;;;;;4812892;29;20157;-90
2022/01/08 02:18:41;;;;;;;;;;;;;;;;;;;;;
2022/01/08 02:21:17;;;;;;;12.85;9.30;;;2.60;99.90;;;;;;4843410;29;20026;-89
2022/01/08 02:23:56;;;;;;;;;;;;;;;;;;;;;
2022/01/08 02:26:48;;;;;;;14.32;8.70;;;2.60;99.90;;;;;;4843142;29;20032;-90
2022/01/08 02:29:37;;;;;;;11.73;8.48;;;2.60;99.90;;;;;;4821969;29;20045;-88
2022/01/08 02:32:42;;;;;;;;;;;;;;;;;;;;;
2022/01/08 02:35:23;;;;;;;12.00;8.40;;;2.60;99.90;;;;;;4817173;29;20050;-88
2022/01/08 02:38:10;;;;;;;;;;;;;;;;;;;;;
2022/01/08 02:40:39;;;;;;;11.98;7.93;;;2.50;99.90;;;;;;4842038;29;20034;-88
2022/01/08 02:43:11;;;;;;;13.82;8.38;;;2.50;99.90;;;;;;4825833;29;20044;-89
2022/01/08 02:46:03;;;;;;;14.73;8.32;;;2.40;99.90;;;;;;4812442;29;20038;-89
2022/01/08 02:48:36;;;;;;;16.85;8.50;;;2.40;99.90;;;;;;4823084;29;20531;-89
2022/01/08 02:51:15;;;;;;;14.82;8.20;;;2.40;99.90;;;;;;4794492;29;20058;-89
2022/01/08 02:54:11;;;;;;;13.23;8.57;;;2.40;99.90;;;;;;4823369;29;20045;-88
2022/01/08 02:56:57;;;;;;;;;;;;;;;;;;;;;
2022/01/08 02:59:49;;;;;;;13.02;8.45;;;2.40;99.90;;;;;;4836059;29;20022;-90
2022/01/08 03:02:14;;;;;;;10.02;7.78;;;2.40;99.90;;;;;;4826983;29;20034;-88
2022/01/08 03:04:45;;;;;;;13.60;7.97;;;2.40;99.90;;;;;;4827279;29;20030;-89
2022/01/08 03:07:31;;;;;;;;;;;;;;;;;;;;;
2022/01/08 03:10:41;;;;;;;12.27;9.10;;;2.40;99.90;;;;;;4826611;29;20032;-89
2022/01/08 03:13:48;;;;;;;;;;;;;;;;;;;;;
2022/01/08 03:16:52;;;;;;;13.50;9.35;;;2.40;99.90;;;;;;4839712;29;20057;-88
2022/01/08 03:19:23;;;;;;;15.18;9.43;;;2.50;99.90;;;;;;4850467;29;20154;-89
2022/01/08 03:22:07;;;;;;;;;;;;;;;;;;;;;
2022/01/08 03:28:04;;;;;;;13.40;8.38;;;2.50;99.90;;;;;;4836412;29;20034;-89
2022/01/08 03:30:45;;;;;;;;;;;;;;;;;;;;;
2022/01/08 03:33:41;;;;;;;;;;;;;;;;;;;;;
2022/01/08 03:36:33;;;;;;;14.20;8.68;;;2.50;99.90;;;;;;4845979;29;20038;-89
2022/01/08 03:39:18;;;;;;;10.93;8.70;;;2.50;99.90;;;;;;4829639;29;20038;-89
2022/01/08 03:42:01;;;;;;;17.48;9.07;;;2.50;99.90;;;;;;4829547;29;20037;-88
2022/01/08 03:44:32;;;;;;;12.38;7.85;;;2.50;99.90;;;;;;4815744;29;20042;-89
2022/01/08 03:49:59;;;;;;;10.18;8.30;;;2.40;99.90;;;;;;4789022;29;20049;-88
2022/01/08 03:52:36;;;;;;;11.52;8.05;;;2.40;99.90;;;;;;4776293;29;20050;-89
2022/01/08 03:55:11;;;;;;;11.73;7.93;;;2.30;99.90;;;;;;4773910;30;20058;-89
2022/01/08 03:57:59;;;;;;;;;;;;;;;;;;;;;
2022/01/08 04:12:20;;;;;;;10.85;7.30;;;2.30;99.90;;;;;;4844929;29;20491;-89
2022/01/08 04:15:20;;;;;;;12.68;7.80;;;2.30;99.90;;;;;;4815653;29;20026;-89
2022/01/08 04:18:36;;;;;;;15.25;7.35;;;2.30;99.90;;;;;;4816241;29;20121;-88
2022/01/08 04:22:18;;;;;;;10.32;7.30;;;2.20;99.90;;;;;;4826129;29;20031;-89
2022/01/08 04:25:16;;;;;;;10.93;7.50;;;2.20;99.90;;;;;;4823085;29;20536;-89
2022/01/08 04:27:42;;;;;;;12.77;7.70;;;2.20;99.90;;;;;;4829686;29;20030;-88
2022/01/08 04:30:27;;;;;;;;;;;;;;;;;;;;;
2022/01/08 04:33:01;;;;;;;12.60;7.20;;;2.20;99.90;;;;;;4847479;29;20446;-88
2022/01/08 04:38:55;;;;;;;12.50;7.30;;;2.20;99.90;;;;;;4790981;29;20018;-89
2022/01/08 04:41:30;;;;;;;13.35;7.15;;;2.20;99.90;;;;;;4840963;29;20062;-86
2022/01/08 04:44:11;;;;;;;12.18;7.18;;;2.10;99.90;;;;;;4842835;29;20129;-88
2022/01/08 04:46:47;;;;;;;12.07;7.22;;;2.10;99.90;;;;;;4826196;29;20030;-90
2022/01/08 04:49:27;;;;;;;14.45;7.97;;;2.10;99.90;;;;;;4813789;29;20053;-89
2022/01/08 04:52:03;;;;;;;10.95;7.25;;;2.10;99.90;;;;;;4810612;29;20049;-89
2022/01/08 04:55:19;;;;;;;;;;;;;;;;;;;;;
2022/01/08 04:57:56;;;;;;;10.05;6.45;;;2.10;99.90;;;;;;4834390;29;20050;-89
2022/01/08 05:00:38;;;;;;;;;;;;;;;;;;;;;
2022/01/08 05:03:07;;;;;;;10.73;7.10;;;2.10;99.90;;;;;;4844464;29;20030;-88
2022/01/08 05:06:00;;;;;;;14.15;7.25;;;2.00;99.90;;;;;;4813444;29;20034;-89
2022/01/08 05:11:48;;;;;;;;;;;;;;;;;;;;;
2022/01/08 05:20:32;;;;;;;12.32;6.78;;;2.00;99.90;;;;;;4831048;29;20395;-88
2022/01/08 05:23:06;;;;;;;13.32;7.70;;;1.90;99.90;;;;;;4828016;29;20124;-89
2022/01/08 05:26:09;;;;;;;;;;;;;;;;;;;;;
2022/01/08 05:29:31;;;;;;;11.65;7.03;;;1.90;99.90;;;;;;4820297;29;20038;-89
2022/01/08 05:32:39;;;;;;;;;;;;;;;;;;;;;
2022/01/08 05:35:11;;;;;;;9.93;6.82;;;1.90;99.90;;;;;;4840913;29;20046;-89
2022/01/08 05:37:47;;;;;;;8.80;6.38;;;1.90;99.90;;;;;;4827773;29;20112;-89
2022/01/08 05:40:27;;;;;;;12.32;7.47;;;1.90;99.90;;;;;;4827245;29;20129;-88
2022/01/08 05:43:18;;;;;;;15.27;7.72;;;1.90;99.90;;;;;;4813456;29;20464;-89
2022/01/08 05:45:46;;;;;;;14.65;7.05;;;1.90;99.90;;;;;;4834493;29;20042;-88
2022/01/08 05:48:17;;;;;;;12.20;7.47;;;1.90;99.90;;;;;;4825132;29;20105;-89
2022/01/08 05:50:52;;;;;;;13.23;6.93;;;2.00;99.90;;;;;;4797914;29;20054;-88
2022/01/08 05:53:24;;;;;;;14.80;7.68;;;1.90;99.90;;;;;;4828302;29;20029;-88
2022/01/08 05:55:53;;;;;;;12.38;7.95;;;1.90;99.90;;;;;;4833143;29;20043;-88
2022/01/08 05:58:43;;;;;;;11.23;7.03;;;1.90;99.90;;;;;;4832510;29;20015;-87
2022/01/08 06:01:21;;;;;;;16.73;7.53;;;2.00;99.90;;;;;;4839921;29;20049;-89
2022/01/08 06:03:50;;;;;;;12.57;7.35;;;2.00;99.90;;;;;;4835448;29;20097;-87
2022/01/08 06:06:24;;;;;;;14.25;7.53;;;2.00;99.90;;;;;;4828352;29;20037;-88
2022/01/08 06:09:02;;;;;;;12.63;7.30;;;2.00;99.90;;;;;;4827644;29;20455;-88
2022/01/08 06:11:48;;;;;;;10.05;6.63;;;2.00;99.90;;;;;;4811827;29;20036;-88
2022/01/08 06:14:16;;;;;;;11.13;7.50;;;2.00;99.90;;;;;;4826926;29;20034;-88
2022/01/08 06:17:09;;;;;;;;;;;;;;;;;;;;;
2022/01/08 06:19:58;;;;;;;;;;;;;;;;;;;;;
2022/01/08 06:22:30;;;;;;;14.55;8.40;;;2.10;99.90;;;;;;4843013;29;20037;-88
2022/01/08 06:25:30;;;;;;;;;;;;;;;;;;;;;
2022/01/08 06:28:19;;;;;;;11.65;7.40;;;2.00;99.90;;;;;;4843759;29;20037;-89
2022/01/08 06:30:58;;;;;;;;;;;;;;;;;;;;;
2022/01/08 06:34:02;;;;;;;;;;;;;;;;;;;;;
2022/01/08 06:36:43;;;;;;;14.38;7.70;;;2.00;99.90;;;;;;4831485;29;20034;-88
2022/01/08 06:39:27;;;;;;;;;;;;;;;;;;;;;
2022/01/08 06:42:01;;;;;;;15.73;8.07;;;2.00;99.90;;;;;;4836720;29;20293;-89
2022/01/08 06:44:33;;;;;;;13.82;7.85;;;2.00;99.90;;;;;;4823704;29;20117;-89
2022/01/08 06:49:57;;;;;;;;;;;;;;;;;;;;;
2022/01/08 06:52:49;;;;;;;13.98;8.07;;;2.00;99.90;;;;;;4837051;29;20034;-89
2022/01/08 06:55:20;;;;;;;12.68;7.40;;;2.00;99.90;;;;;;4817028;29;20038;-90
2022/01/08 06:58:25;;;;;;;;;;;;;;;;;;;;;
2022/01/08 07:00:54;;;;;;;16.92;7.90;;;2.10;99.90;;;;;;4835880;29;20042;-88
2022/01/08 07:04:04;;;;;;;13.57;7.72;;;2.00;99.90;;;;;;4835565;29;20038;-89
2022/01/08 07:06:34;;;;;;;12.77;7.50;;;2.00;99.90;;;;;;4825347;29;20543;-89
2022/01/08 07:09:21;;;;;;;;;;;;;;;;;;;;;
2022/01/08 07:12:00;;;;;;;;;;;;;;;;;;;;;
2022/01/08 07:14:40;;;;;;;15.15;8.65;;;2.00;99.90;;;;;;4865723;29;20029;-89
2022/01/08 07:17:21;;;;;;;11.93;8.07;;;2.00;99.90;;;;;;4850091;29;20052;-89
2022/01/08 07:19:52;;;;;;;14.27;8.18;;;2.00;99.90;;;;;;4855716;29;20061;-89
2022/01/08 07:25:48;;;;;;;12.88;7.60;;;2.00;99.90;;;;;;4831881;29;20023;-90
2022/01/08 07:28:44;;;;;;;14.90;9.05;;;2.00;99.90;;;;;;4839746;29;20034;-88
2022/01/08 07:31:15;;;;;;;14.00;8.43;;;2.10;99.90;;;;;;4816124;29;20030;-89
2022/01/08 07:34:41;;;;;;;16.95;7.68;;;2.10;99.90;;;;;;4811737;29;20038;-89
2022/01/08 07:37:33;;;;;;;;;;;;;;;;;;;;;
2022/01/08 07:40:09;;;;;;;15.27;8.82;;;2.00;99.90;;;;;;4845810;29;20030;-90
2022/01/08 07:42:40;;;;;;;15.95;8.77;;;2.00;99.90;;;;;;4796836;29;20544;-89
2022/01/08 07:45:19;;;;;;;13.32;8.20;;;2.00;99.90;;;;;;4811765;29;20094;-88
2022/01/08 07:48:02;;;;;;;16.55;8.52;;;2.10;99.90;;;;;;4844586;29;20086;-87
2022/01/08 07:50:56;;;;;;;14.35;8.70;;;2.00;99.90;;;;;;4814272;29;20546;-88
2022/01/08 07:53:59;;;;;;;13.23;8.40;;;2.00;99.90;;;;;;4829430;29;20090;-89
2022/01/08 07:57:03;;;;;;;12.73;8.75;;;2.00;99.90;;;;;;4844937;29;20050;-88
2022/01/08 07:59:34;;;;;;;15.73;8.65;;;2.10;99.90;;;;;;4831645;29;20543;-89
2022/01/08 08:02:50;;;;;;;;;;;;;;;;;;;;;
2022/01/08 08:05:33;;;;;;;;;;;;;;;;;;;;;
2022/01/08 08:08:29;;;;;;;13.63;8.55;;;2.10;99.90;;;;;;4844684;29;20046;-89
2022/01/08 08:11:11;;;;;;;14.95;8.27;;;2.10;99.90;;;;;;4818305;29;20068;-88
2022/01/08 08:14:11;;;;;;;16.48;8.23;;;2.20;99.90;;;;;;4812633;29;20075;-89
2022/01/08 08:17:18;;;;;;;14.80;8.35;;;2.20;99.90;;;;;;4824854;29;20038;-89
2022/01/08 08:20:04;;;;;;;;;;;;;;;;;;;;;
2022/01/08 08:22:33;;;;;;;12.50;8.77;;;2.30;99.90;;;;;;4830666;29;20034;-90
2022/01/08 08:25:14;;;;;;;13.00;8.77;;;2.30;99.90;;;;;;4825667;29;20401;-90
2022/01/08 08:27:56;;;;;;;;;;;;;;;;;;;;;
2022/01/08 08:33:21;;;;;;;12.00;8.32;;;2.40;99.90;;;;;;4818764;29;20197;-91
2022/01/08 08:35:50;;;;;;;15.75;8.40;;;2.50;99.90;;;;;;4829438;29;20030;-89
2022/01/08 08:38:54;;;;;;;15.95;8.98;;;2.50;99.90;;;;;;4829081;29;20030;-88
2022/01/08 08:41:42;;;;;;;;;;;;;;;;;;;;;
2022/01/08 08:44:20;;;;;;;14.45;8.43;;;2.60;99.90;;;;;;4854190;29;20033;-89
2022/01/08 08:46:49;;;;;;;14.90;8.57;;;2.60;99.90;;;;;;4834697;29;20098;-90
2022/01/08 08:49:15;;;;;;;15.75;8.65;;;2.70;99.90;;;;;;4848680;29;20078;-85
2022/01/08 08:52:03;;;;;;;12.90;9.57;;;2.70;99.90;;;;;;4838649;29;20075;-90
2022/01/08 08:54:39;;;;;;;17.00;9.82;;;2.70;99.90;;;;;;4795186;29;20504;-88
2022/01/08 08:57:20;;;;;;;;;;;;;;;;;;;;;
2022/01/08 08:59:55;;;;;;;;;;;2.80;99.90;;;;;;4827679;29;20035;-89
2022/01/08 09:02:38;;;;;;;;;;;;;;;;;;;;;
2022/01/08 09:05:08;;;;;;;12.60;8.85;;;2.80;99.90;;;;;;4819449;29;20042;-90
2022/01/08 09:08:04;;;;;;;13.20;8.55;;;2.80;99.90;;;;;;4810826;29;20076;-89
2022/01/08 09:10:49;;;;;;;13.73;8.65;;;2.90;99.90;;;;;;4810353;29;20035;-90
2022/01/08 09:13:28;;;;;;;13.50;8.02;;;2.90;99.90;;;;;;4792252;29;20119;-90
2022/01/08 09:16:01;;;;;;;15.85;7.72;;;3.00;99.90;;;;;;4807239;29;20045;-89
2022/01/08 09:18:47;;;;;;;14.93;8.38;;;3.00;99.90;;;;;;4807460;29;20034;-89
2022/01/08 09:21:25;;;;;;;15.13;8.20;;;3.00;99.90;;;;;;4806916;29;20033;-90
2022/01/08 09:24:00;;;;;;;14.15;8.57;;;3.10;99.90;;;;;;4807063;29;20058;-91
2022/01/08 09:26:34;;;;;;;17.60;10.80;;;3.10;99.90;;;;;;4807147;29;20051;-89
2022/01/08 09:29:15;;;;;;;18.65;10.15;;;3.10;99.90;;;;;;4807986;29;20042;-88
2022/01/08 09:32:21;;;;;;;;;;;;;;;;;;;;;
2022/01/08 09:35:07;;;;;;;15.68;7.93;;;3.20;99.90;;;;;;4814644;29;20037;-90
2022/01/08 09:37:55;;;;;;;14.40;8.48;;;3.30;99.90;;;;;;4806657;29;20039;-89
2022/01/08 09:40:43;;;;;;;13.60;8.32;;;3.30;99.90;;;;;;4815678;29;20026;-94
2022/01/08 09:43:16;;;;;;;13.07;7.35;;;3.30;99.90;;;;;;4808962;29;20205;-89
2022/01/08 09:46:06;;;;;;;13.05;7.78;;;3.30;99.90;;;;;;4812343;29;20039;-88
2022/01/08 09:48:41;;;;;;;12.57;8.43;;;3.40;99.90;;;;;;4820469;29;20079;-88
2022/01/08 09:51:07;;;;;;;12.48;8.70;;;3.40;99.90;;;;;;4838672;29;20054;-86
2022/01/08 09:53:49;;;;;;;14.50;9.00;;;3.40;99.90;;;;;;4832528;29;20133;-87
2022/01/08 09:56:24;;;;;;;14.88;9.13;;;3.50;99.90;;;;;;4833312;29;20142;-88
2022/01/08 09:58:52;;;;;;;13.90;8.30;;;3.50;99.90;;;;;;4837491;29;20050;-88
2022/01/08 10:01:33;;;;;;;14.02;8.18;;;3.50;99.90;;;;;;4835570;29;20030;-88
2022/01/08 10:04:01;;;;;;;11.82;7.18;;;3.50;99.90;;;;;;4832606;29;20113;-88
2022/01/08 10:06:51;;;;;;;13.75;8.50;;;3.60;99.90;;;;;;4853626;29;20025;-87
2022/01/08 10:09:19;;;;;;;15.38;8.38;;;3.60;99.90;;;;;;4854536;29;20037;-87
2022/01/08 10:18:05;;;;;;;14.30;8.82;;;3.70;99.90;;;;;;4846303;29;20041;-89
2022/01/08 10:20:49;;;;;;;14.70;9.93;;;3.70;99.90;;;;;;4809294;29;20093;-90
2022/01/08 10:23:34;;;;;;;16.60;10.15;;;3.70;99.90;;;;;;4809704;29;20030;-91
2022/01/08 10:26:13;;;;;;;13.15;9.80;;;3.80;99.90;;;;;;4828398;29;20044;-89
2022/01/08 10:28:47;;;;;;;17.25;10.18;;;3.80;99.90;;;;;;4852469;29;20029;-88
2022/01/08 10:31:56;;;;;;;20.58;12.60;;;3.80;99.90;;;;;;4835734;29;20030;-94
2022/01/08 10:41:16;;;;;;;16.38;11.43;;;3.90;99.90;;;;;;4827343;29;20049;-92
2022/01/08 10:43:44;;;;;;;19.00;12.48;;;3.90;99.90;;;;;;4821748;29;20038;-88
2022/01/08 10:46:30;;;;;;;17.52;11.15;;;3.90;99.90;;;;;;4822434;29;20436;-89
2022/01/08 10:49:02;;;;;;;18.98;10.88;;;4.00;99.90;;;;;;4819681;29;20048;-90
2022/01/08 10:51:37;;;;;;;19.05;11.40;;;4.00;99.90;;;;;;4823121;29;20046;-88
2022/01/08 10:54:10;;;;;;;18.00;11.43;;;4.10;99.90;;;;;;4819997;29;20053;-88
2022/01/08 10:56:48;;;;;;;15.65;12.35;;;4.10;99.90;;;;;;4824958;29;20141;-88
2022/01/08 10:59:24;;;;;;;18.25;12.00;;;4.10;99.90;;;;;;4823599;29;20031;-87
2022/01/08 11:01:52;;;;;;;19.58;12.73;;;4.20;99.90;;;;;;4825226;29;20042;-87
2022/01/08 11:04:40;;;;;;;21.10;13.50;;;4.20;99.90;;;;;;4819784;29;20066;-86
2022/01/08 11:07:17;;;;;;;20.00;12.57;;;4.30;99.90;;;;;;4807768;29;20030;-87
2022/01/08 11:09:47;;;;;;;23.45;12.30;;;4.30;99.90;;;;;;4824400;29;20026;-89
2022/01/08 11:12:17;;;;;;;22.30;12.60;;;4.30;99.90;;;;;;4816160;29;20023;-87
2022/01/08 11:17:49;;;;;;;21.17;13.27;;;4.40;99.90;;;;;;4841067;29;20073;-88
2022/01/08 11:20:22;;;;;;;22.75;13.05;;;4.40;99.90;;;;;;4813454;29;20492;-91
2022/01/08 11:23:02;;;;;;;23.58;15.48;;;4.40;99.90;;;;;;4838075;29;20046;-91
2022/01/08 11:26:30;;;;;;;;;;;;;;;;;;;;;
2022/01/08 11:29:33;;;;;;;22.83;14.45;;;4.50;99.90;;;;;;4832283;29;20052;-92
2022/01/08 11:32:23;;;;;;;21.77;14.43;;;4.50;99.90;;;;;;4833340;29;20025;-92
2022/01/08 11:35:11;;;;;;;;;;;;;;;;;;;;;
2022/01/08 11:37:50;;;;;;;22.05;13.60;;;4.60;99.90;;;;;;4855368;29;20088;-87
2022/01/08 11:40:23;;;;;;;24.23;14.27;;;4.60;99.90;;;;;;4825709;29;20121;-89
2022/01/08 11:43:02;;;;;;;23.92;14.27;;;4.60;99.90;;;;;;4821722;29;20491;-88
2022/01/08 11:45:47;;;;;;;27.08;14.00;;;4.60;99.90;;;;;;4823283;29;20054;-87
2022/01/08 11:48:14;;;;;;;20.67;12.80;;;4.60;99.90;;;;;;4837952;29;20026;-86
2022/01/08 11:51:00;;;;;;;19.17;12.40;;;4.60;99.90;;;;;;4810557;29;20050;-86
2022/01/08 11:54:04;;;;;;;20.10;13.20;;;4.70;99.90;;;;;;4824873;29;20057;-87
2022/01/08 11:56:48;;;;;;;;;;;;;;;;;;;;;
2022/01/08 11:59:19;;;;;;;20.73;13.05;;;4.80;99.90;;;;;;4843898;29;20034;-87
2022/01/08 12:02:19;;;;;;;18.98;11.93;;;4.70;99.90;;;;;;4847303;29;20113;-86
2022/01/08 12:04:52;;;;;;;21.92;12.93;;;4.80;99.90;;;;;;4824878;29;20059;-87
2022/01/08 12:07:30;;;;;;;17.23;11.00;;;4.80;99.90;;;;;;4818208;29;20034;-90
2022/01/08 12:11:01;;;;;;;;;;;;;;;;;;;;;
2022/01/08 12:14:20;;;;;;;17.17;11.02;;;4.80;99.90;;;;;;4772039;30;20043;-91
2022/01/08 12:17:45;;;;;;;;;;;;;;;;;;;;;
2022/01/08 12:27:01;;;;;;;;;;;;;;;;;;;;;
2022/01/08 12:29:39;;;;;;;13.43;9.07;;;4.90;99.90;;;;;;4809895;29;20049;-92
2022/01/08 12:33:05;;;;;;;;;;;;;;;;;;;;;
2022/01/08 12:39:36;;;;;;;17.30;9.90;;;5.00;99.90;;;;;;4773982;29;20034;-92
2022/01/08 12:45:31;;;;;;;14.32;9.18;;;5.00;99.90;;;;;;4779676;29;20050;-89
2022/01/08 12:48:08;;;;;;;13.27;8.60;;;5.00;99.90;;;;;;4786025;29;20062;-88
2022/01/08 12:53:31;;;;;;;13.63;8.68;;;5.10;99.90;;;;;;4803873;29;20035;-90
2022/01/08 12:55:57;;;;;;;13.57;8.18;;;5.10;99.90;;;;;;4780857;29;20039;-90
2022/01/08 12:58:44;;;;;;;15.80;8.77;;;5.10;99.90;;;;;;4834170;29;20025;-87
2022/01/08 13:01:11;;;;;;;12.65;7.72;;;5.10;99.90;;;;;;4833777;29;20034;-88
2022/01/08 13:03:42;;;;;;;14.43;8.85;;;5.10;99.90;;;;;;4841281;29;20022;-87
2022/01/08 13:06:21;;;;;;;12.40;7.93;;;5.10;99.90;;;;;;4842487;29;20121;-90
2022/01/08 13:08:49;;;;;;;13.30;7.38;;;5.10;99.90;;;;;;4813779;29;20072;-87
2022/01/08 13:11:20;;;;;;;12.02;7.47;;;5.10;99.90;;;;;;4818311;29;20038;-87
2022/01/08 13:13:53;;;;;;;10.18;7.53;;;5.10;99.90;;;;;;4811135;29;20034;-88
2022/01/08 13:16:26;;;;;;;10.90;7.03;;;5.10;99.90;;;;;;4824889;29;20030;-88
2022/01/08 13:19:00;;;;;;;13.13;7.70;;;5.10;99.90;;;;;;4840204;29;20022;-88
2022/01/08 13:21:42;;;;;;;11.32;6.88;;;5.10;99.90;;;;;;4823943;29;20037;-89
2022/01/08 13:24:20;;;;;;;9.45;6.00;;;5.10;99.90;;;;;;4818944;29;20133;-90
2022/01/08 13:26:57;;;;;;;9.68;5.65;;;5.10;99.90;;;;;;4823491;29;20052;-89
2022/01/08 13:29:28;;;;;;;7.30;5.30;;;5.10;99.90;;;;;;4820744;29;20179;-90
2022/01/08 13:31:57;;;;;;;10.38;5.63;;;5.10;99.90;;;;;;4827240;29;20038;-90
2022/01/08 13:34:52;;;;;;;11.65;5.43;;;5.10;99.90;;;;;;4824804;29;20031;-88
2022/01/08 13:37:35;;;;;;;7.55;4.60;;;5.10;99.90;;;;;;4825249;29;20076;-88
2022/01/08 13:40:14;;;;;;;8.77;4.93;;;5.20;99.90;;;;;;4827869;29;20041;-90
2022/01/08 13:42:45;;;;;;;8.15;4.10;;;5.10;99.90;;;;;;4812290;29;20038;-91
2022/01/08 13:45:41;;;;;;;6.15;4.18;;;5.20;99.90;;;;;;4820704;29;20079;-91
2022/01/08 13:48:09;;;;;;;8.73;4.38;;;5.20;99.90;;;;;;4841556;29;20026;-90
2022/01/08 13:50:47;;;;;;;9.07;4.22;;;5.20;99.90;;;;;;4826002;29;20045;-89
2022/01/08 13:53:15;;;;;;;6.18;4.05;;;5.20;99.90;;;;;;4823045;29;20067;-89
2022/01/08 13:56:27;;;;;;;8.35;4.63;;;5.30;99.90;;;;;;4819416;29;20032;-89
2022/01/08 13:59:15;;;;;;;5.63;3.63;;;5.20;99.90;;;;;;4840807;29;20121;-90
2022/01/08 14:02:05;;;;;;;;;;;;;;;;;;;;;
2022/01/08 14:04:36;;;;;;;8.18;3.80;;;5.20;99.90;;;;;;4842259;29;20037;-90
2022/01/08 14:07:02;;;;;;;6.05;3.90;;;5.20;99.90;;;;;;4808157;29;20030;-88
2022/01/08 14:09:28;;;;;;;7.32;3.35;;;5.20;99.90;;;;;;4823466;29;20105;-91
2022/01/08 14:12:34;;;;;;;8.30;3.70;;;5.20;99.90;;;;;;4826818;29;20563;-88
2022/01/08 14:15:05;;;;;;;6.88;3.83;;;5.20;99.90;;;;;;4760654;29;20067;-90
2022/01/08 14:17:40;;;;;;;7.90;3.60;;;5.20;99.90;;;;;;4816931;29;20030;-90
2022/01/08 14:20:06;;;;;;;7.57;3.58;;;5.20;99.90;;;;;;4818451;29;20026;-91
2022/01/08 14:22:33;;;;;;;4.18;3.03;;;5.20;99.90;;;;;;4823780;29;20064;-88
2022/01/08 14:24:59;;;;;;;5.45;3.30;;;5.20;99.90;;;;;;4832714;29;20458;-90
2022/01/08 14:27:27;;;;;;;7.40;3.13;;;5.20;99.90;;;;;;4851500;29;20501;-89
2022/01/08 14:30:02;;;;;;;6.75;3.17;;;5.20;99.90;;;;;;4842471;29;20023;-88
2022/01/08 14:32:31;;;;;;;4.07;2.70;;;5.20;99.90;;;;;;4842808;29;20030;-89
2022/01/08 14:35:04;;;;;;;5.43;2.25;;;5.20;99.90;;;;;;4822337;29;20041;-89
2022/01/08 14:37:41;;;;;;;4.90;2.47;;;5.20;99.90;;;;;;4831238;29;20060;-89
2022/01/08 14:40:28;;;;;;;4.00;2.00;;;5.20;99.90;;;;;;4815720;29;20481;-89
2022/01/08 14:43:08;;;;;;;4.68;2.05;;;5.20;99.90;;;;;;4809353;29;20031;-90
2022/01/08 14:45:48;;;;;;;5.55;1.80;;;5.20;99.90;;;;;;4811099;29;20113;-89
2022/01/08 14:48:19;;;;;;;4.75;1.83;;;5.20;99.90;;;;;;4824422;29;20026;-89
2022/01/08 14:50:50;;;;;;;4.22;1.35;;;5.10;99.90;;;;;;4822739;29;20137;-88
2022/01/08 14:53:17;;;;;;;2.42;1.70;;;5.10;99.90;;;;;;4818442;29;20033;-88
2022/01/08 14:55:50;;;;;;;3.38;1.40;;;5.10;99.90;;;;;;4821774;29;20117;-90
2022/01/08 14:58:18;;;;;;;2.92;1.92;;;5.10;99.90;;;;;;4819576;29;20048;-90
2022/01/08 15:00:44;;;;;;;10.50;6.60;;;5.10;99.90;;;;;;4821569;29;20479;-90
2022/01/08 15:03:13;;;;;;;5.18;3.22;;;5.10;99.90;;;;;;4820549;29;20110;-91
2022/01/08 15:05:56;;;;;;;6.63;2.63;;;5.00;99.90;;;;;;4814268;29;20039;-91
2022/01/08 15:08:25;;;;;;;3.05;2.05;;;5.10;99.90;;;;;;4803722;29;20042;-90
2022/01/08 15:10:54;;;;;;;3.70;1.80;;;5.00;99.90;;;;;;4816405;29;20037;-89
2022/01/08 15:13:26;;;;;;;2.08;1.58;;;5.10;99.90;;;;;;4820270;29;20034;-89
2022/01/08 15:15:52;;;;;;;;;;;5.00;99.90;;;;;;4815707;29;20042;-89
2022/01/08 15:18:17;;;;;;;2.20;1.70;;;5.10;99.90;;;;;;4825359;29;19957;-89
2022/01/08 15:20:46;;;;;;;4.93;2.03;;;5.10;99.90;;;;;;4818686;29;20574;-90
2022/01/08 15:23:24;;;;;;;;;;;;;;;;;;;;;
2022/01/08 15:25:52;;;;;;;3.20;1.60;;;5.00;99.90;;;;;;4836226;29;20046;-91
2022/01/08 15:28:20;;;;;;;2.97;1.83;;;5.10;99.90;;;;;;4821103;29;20037;-88
2022/01/08 15:31:06;;;;;;;3.55;1.83;;;5.00;99.90;;;;;;4799977;29;20087;-89
2022/01/08 15:33:39;;;;;;;3.22;1.48;;;5.00;99.90;;;;;;4813508;29;20496;-90
2022/01/08 15:36:05;;;;;;;4.60;2.03;;;5.00;99.90;;;;;;4815317;29;20055;-88
2022/01/08 15:38:39;;;;;;;2.50;1.45;;;5.00;99.90;;;;;;4823766;29;20045;-89
2022/01/08 15:41:09;;;;;;;3.20;1.60;;;5.00;99.90;;;;;;4823328;29;20022;-90
2022/01/08 15:44:04;;;;;;;3.13;1.67;;;5.00;99.90;;;;;;4814089;29;20041;-89
2022/01/08 15:46:38;;;;;;;4.05;1.63;;;5.00;99.90;;;;;;4830233;29;20026;-88
2022/01/08 15:49:42;;;;;;;4.00;2.35;;;5.00;99.90;;;;;;4816599;29;20042;-91
2022/01/08 15:52:11;;;;;;;4.35;2.30;;;5.00;99.90;;;;;;4844025;29;20038;-89
2022/01/08 15:54:42;;;;;;;3.65;1.70;;;5.00;99.90;;;;;;4852505;29;20045;-89
2022/01/08 16:00:25;;;;;;;3.13;1.70;;;5.10;99.90;;;;;;4852805;29;20045;-87
2022/01/08 16:03:09;;;;;;;;;;;;;;;;;;;;;
2022/01/08 16:06:18;;;;;;;;;;;;;;;;;;;;;
2022/01/08 16:08:49;;;;;;;23.33;11.50;;;5.10;99.90;;;;;;4829336;29;20094;-89
2022/01/08 16:11:19;;;;;;;44.00;24.88;;;5.10;99.90;;;;;;4813944;29;20046;-89
2022/01/08 16:13:56;;;;;;;24.40;14.48;;;5.10;99.90;;;;;;4813236;29;20030;-87
2022/01/08 16:16:27;;;;;;;13.52;7.45;;;5.10;99.90;;;;;;4806125;29;20038;-86
2022/01/08 16:18:53;;;;;;;8.63;4.25;;;5.10;99.90;;;;;;4827601;29;20043;-87
2022/01/08 16:21:22;;;;;;;5.25;2.88;;;5.10;99.90;;;;;;4817005;29;20040;-87
2022/01/08 16:27:06;;;;;;;3.58;1.95;;;5.20;99.90;;;;;;4806316;29;20035;-92
2022/01/08 16:30:28;;;;;;;;;;;;;;;;;;;;;
2022/01/08 16:33:30;;;;;;;4.15;1.83;;;5.20;99.90;;;;;;4819995;29;20034;-90
2022/01/08 16:36:42;;;;;;;5.03;1.73;;;5.20;99.90;;;;;;4829255;29;20136;-91
2022/01/08 16:46:02;;;;;;;;;;;;;;;;;;;;;
2022/01/08 16:49:06;;;;;;;;;;;;;;;;;;;;;
2022/01/08 16:52:13;;;;;;;2.72;1.90;;;5.30;99.90;;;;;;4792582;29;20051;-91
2022/01/08 16:58:48;;;;;;;;;;;;;;;;;;;;;
2022/01/08 17:01:32;;;;;;;;;;;;;;;;;;;;;
2022/01/08 17:04:40;;;;;;;2.95;2.30;;;5.30;99.90;;;;;;4786441;29;20053;-91
2022/01/08 17:21:00;;;;;;;2.67;1.73;;;5.40;99.90;;;;;;4756812;30;20044;-92
2022/01/08 17:37:30;;;;;;;;;;;;;;;;;;;;;
2022/01/08 17:40:40;;;;;;;;;;;;;;;;;;;;;
2022/01/08 18:01:37;;;;;;;;;;;;;;;;;;;;;
2022/01/08 18:08:29;;;;;;;;;;;;;;;;;;;;;
2022/01/08 18:29:14;;;;;;;;;;;;;;;;;;;;;
2022/01/08 18:32:37;;;;;;;;;;;;;;;;;;;;;
2022/01/08 19:00:06;;;;;;;;;;;;;;;;;;;;;
2022/01/08 19:03:06;;;;;;;;;;;;;;;;;;;;;
2022/01/08 19:12:40;;;;;;;;;;;;;;;;;;;;;
2022/01/08 19:18:34;;;;;;;1.38;1.00;;;6.00;99.90;;;;;;4826131;29;20042;-91
2022/01/08 19:21:30;;;;;;;1.15;0.95;;;6.10;99.90;;;;;;4825159;29;20034;-91
2022/01/08 19:26:56;;;;;;;0.85;0.80;;;6.10;99.90;;;;;;4825204;29;20574;-89
2022/01/08 19:29:28;;;;;;;1.20;0.90;;;6.10;99.90;;;;;;4820247;29;20038;-91
2022/01/08 19:36:32;;;;;;;1.17;0.93;;;6.20;99.90;;;;;;4758277;30;20040;-90
2022/01/08 19:39:05;;;;;;;;;;;;;;;;;;;;;
2022/01/08 19:45:42;;;;;;;;;;;;;;;;;;;;;